createdAt,value
2019-04-21T00:00:35.531Z,16.02
2019-04-21T00:03:11.487Z,16.06
2019-04-21T00:05:58.813Z,16.20
2019-04-21T00:11:02.838Z,16.24
2019-04-21T00:13:28.095Z,16.22
2019-04-21T00:15:48.905Z,16.20
2019-04-21T00:18:40.692Z,16.17
2019-04-21T00:21:13.805Z,15.88
2019-04-21T00:23:55.267Z,16.02
2019-04-21T00:26:24.050Z,16.02
2019-04-21T00:28:59.434Z,16.13
2019-04-21T00:31:24.675Z,16.13
2019-04-21T00:33:41.000Z,16.20
2019-04-21T00:36:13.340Z,16.11
2019-04-21T00:39:09.980Z,15.98
2019-04-21T00:41:30.839Z,16.08
2019-04-21T00:43:54.187Z,16.15
2019-04-21T00:46:29.264Z,16.22
2019-04-21T00:48:57.376Z,16.25
2019-04-21T00:51:43.912Z,16.22
2019-04-21T00:54:12.649Z,16.04
2019-04-21T00:56:36.639Z,16.17
2019-04-21T00:59:11.820Z,16.17
2019-04-21T01:01:35.613Z,16.27
2019-04-21T01:04:11.332Z,16.24
2019-04-21T01:06:36.908Z,16.26
2019-04-21T01:09:02.669Z,16.30
2019-04-21T01:11:38.973Z,16.30
2019-04-21T01:14:11.771Z,16.25
2019-04-21T01:16:40.888Z,16.24
2019-04-21T01:19:05.064Z,16.26
2019-04-21T01:21:18.781Z,16.04
2019-04-21T01:23:48.628Z,15.92
2019-04-21T01:26:31.064Z,15.86
2019-04-21T01:29:06.970Z,15.79
2019-04-21T01:31:36.318Z,15.68
2019-04-21T01:34:11.654Z,15.47
2019-04-21T01:36:39.031Z,15.32
2019-04-21T01:39:14.964Z,15.12
2019-04-21T01:41:44.767Z,14.98
2019-04-21T01:44:14.663Z,14.79
2019-04-21T01:46:40.743Z,14.80
2019-04-21T01:49:10.525Z,14.82
2019-04-21T01:51:57.878Z,14.65
2019-04-21T01:54:28.611Z,14.66
2019-04-21T01:57:03.120Z,14.67
2019-04-21T01:59:33.444Z,14.62
2019-04-21T02:02:05.279Z,14.50
2019-04-21T02:04:41.731Z,14.65
2019-04-21T02:07:11.625Z,14.64
2019-04-21T02:09:38.122Z,14.50
2019-04-21T02:12:17.252Z,14.40
2019-04-21T02:14:46.062Z,14.38
2019-04-21T02:17:14.731Z,14.37
2019-04-21T02:19:36.347Z,14.34
2019-04-21T02:22:10.799Z,14.44
2019-04-21T02:24:51.569Z,14.43
2019-04-21T02:27:21.473Z,14.35
2019-04-21T02:29:47.138Z,14.28
2019-04-21T02:32:35.653Z,14.39
2019-04-21T02:35:04.016Z,14.43
2019-04-21T02:37:40.275Z,14.26
2019-04-21T02:40:04.286Z,14.09
2019-04-21T02:42:32.462Z,13.87
2019-04-21T02:45:06.589Z,13.57
2019-04-21T02:50:09.577Z,12.93
2019-04-21T02:52:35.495Z,12.76
2019-04-21T02:55:03.739Z,12.68
2019-04-21T02:57:41.293Z,12.52
2019-04-21T03:00:16.609Z,12.30
2019-04-21T03:08:37.931Z,12.48
2019-04-21T03:11:03.610Z,12.23
2019-04-21T03:16:07.311Z,11.79
2019-04-21T03:18:38.017Z,11.63
2019-04-21T03:21:15.790Z,11.52
2019-04-21T03:23:52.179Z,11.44
2019-04-21T03:26:24.927Z,11.69
2019-04-21T03:28:35.666Z,11.45
2019-04-21T03:34:28.855Z,11.13
2019-04-21T03:41:25.648Z,10.97
2019-04-21T03:43:52.523Z,10.97
2019-04-21T03:46:18.319Z,10.86
2019-04-21T03:51:23.175Z,10.72
2019-04-21T03:53:54.302Z,10.50
2019-04-21T03:56:44.384Z,10.33
2019-04-21T03:58:59.865Z,10.17
2019-04-21T04:01:22.138Z,10.04
2019-04-21T04:09:37.523Z,9.75
2019-04-21T04:12:02.478Z,9.87
2019-04-21T04:17:11.876Z,9.54
2019-04-21T04:19:39.317Z,9.48
2019-04-21T04:22:15.330Z,9.45
2019-04-21T04:27:35.273Z,9.32
2019-04-21T04:29:51.340Z,9.83
2019-04-21T04:32:25.307Z,9.87
2019-04-21T04:34:57.234Z,9.82
2019-04-21T04:40:14.253Z,9.71
2019-04-21T04:42:55.648Z,9.71
2019-04-21T04:45:30.563Z,9.79
2019-04-21T04:48:01.959Z,9.92
2019-04-21T04:50:29.879Z,10.04
2019-04-21T04:55:33.805Z,10.08
2019-04-21T05:00:34.604Z,10.23
2019-04-21T05:05:34.542Z,10.27
2019-04-21T05:08:12.080Z,10.28
2019-04-21T05:10:57.445Z,10.33
2019-04-21T05:13:07.696Z,10.42
2019-04-21T05:15:28.562Z,10.58
2019-04-21T05:18:05.383Z,10.54
2019-04-21T05:20:32.230Z,10.58
2019-04-21T05:23:02.983Z,10.59
2019-04-21T05:25:23.685Z,10.66
2019-04-21T05:27:55.362Z,10.66
2019-04-21T05:30:50.132Z,10.81
2019-04-21T05:33:43.001Z,10.78
2019-04-21T05:36:18.715Z,10.86
2019-04-21T05:39:07.207Z,10.91
2019-04-21T05:41:26.203Z,10.91
2019-04-21T05:44:03.798Z,11.01
2019-04-21T05:46:40.353Z,11.09
2019-04-21T05:49:10.900Z,11.19
2019-04-21T05:51:57.489Z,11.32
2019-04-21T05:54:39.386Z,11.46
2019-04-21T05:56:59.774Z,11.68
2019-04-21T05:59:35.494Z,11.88
2019-04-21T06:02:15.150Z,11.98
2019-04-21T06:05:03.153Z,12.11
2019-04-21T06:07:15.311Z,12.18
2019-04-21T06:09:46.802Z,12.45
2019-04-21T06:12:08.666Z,12.59
2019-04-21T06:14:43.973Z,12.88
2019-04-21T06:17:20.541Z,13.05
2019-04-21T06:19:49.418Z,13.11
2019-04-21T06:22:07.605Z,13.54
2019-04-21T06:24:54.254Z,13.54
2019-04-21T06:27:17.645Z,13.96
2019-04-21T06:29:44.211Z,14.13
2019-04-21T06:35:09.550Z,14.65
2019-04-21T06:37:46.900Z,14.83
2019-04-21T06:40:15.308Z,14.89
2019-04-21T06:42:40.194Z,15.22
2019-04-21T06:45:30.002Z,15.33
2019-04-21T06:47:47.432Z,15.82
2019-04-21T06:50:12.175Z,16.03
2019-04-21T06:55:15.616Z,16.57
2019-04-21T06:57:41.765Z,16.63
2019-04-21T07:00:10.126Z,16.43
2019-04-21T07:05:14.644Z,16.73
2019-04-21T07:07:43.318Z,17.00
2019-04-21T07:10:14.366Z,17.21
2019-04-21T07:12:39.401Z,17.20
2019-04-21T07:15:09.928Z,17.39
2019-04-21T07:17:45.465Z,17.47
2019-04-21T07:20:18.334Z,17.65
2019-04-21T07:22:48.066Z,18.49
2019-04-21T07:25:13.782Z,19.76
2019-04-21T07:27:50.626Z,21.01
2019-04-21T07:30:20.868Z,21.20
2019-04-21T07:32:56.322Z,21.68
2019-04-21T07:35:20.820Z,22.11
2019-04-21T07:37:57.895Z,22.05
2019-04-21T07:40:15.057Z,21.87
2019-04-21T07:42:46.679Z,22.14
2019-04-21T07:45:16.871Z,21.86
2019-04-21T07:47:57.895Z,21.94
2019-04-21T07:50:58.046Z,22.02
2019-04-21T07:53:48.211Z,21.88
2019-04-21T07:55:49.616Z,21.92
2019-04-21T07:58:35.451Z,21.92
2019-04-21T08:01:11.734Z,22.36
2019-04-21T08:03:38.839Z,22.53
2019-04-21T08:06:12.826Z,22.01
2019-04-21T08:08:41.026Z,20.74
2019-04-21T08:11:09.664Z,19.68
2019-04-21T08:13:44.915Z,19.09
2019-04-21T08:16:12.748Z,18.95
2019-04-21T08:21:15.444Z,18.90
2019-04-21T08:23:41.604Z,18.95
2019-04-21T08:26:33.801Z,19.09
2019-04-21T08:28:49.363Z,18.76
2019-04-21T08:31:18.905Z,18.94
2019-04-21T08:38:49.630Z,19.04
2019-04-21T08:41:18.395Z,19.27
2019-04-21T08:44:02.311Z,19.23
2019-04-21T08:46:20.252Z,19.40
2019-04-21T08:51:30.235Z,19.77
2019-04-21T08:53:55.121Z,19.82
2019-04-21T08:56:41.378Z,20.02
2019-04-21T08:59:38.828Z,19.99
2019-04-21T09:02:37.422Z,20.20
2019-04-21T09:04:58.639Z,20.26
2019-04-21T09:07:44.907Z,20.30
2019-04-21T09:10:02.915Z,20.37
2019-04-21T09:12:34.613Z,20.32
2019-04-21T09:15:01.172Z,20.32
2019-04-21T09:17:31.610Z,20.34
2019-04-21T09:20:13.807Z,20.50
2019-04-21T09:22:35.728Z,20.61
2019-04-21T09:25:01.585Z,20.70
2019-04-21T09:27:33.093Z,20.83
2019-04-21T09:29:53.974Z,20.89
2019-04-21T09:32:23.863Z,20.91
2019-04-21T09:34:51.331Z,20.94
2019-04-21T09:37:36.971Z,21.02
2019-04-21T09:39:55.927Z,20.99
2019-04-21T09:42:33.283Z,20.97
2019-04-21T09:44:59.453Z,21.02
2019-04-21T09:47:35.187Z,21.09
2019-04-21T09:49:56.301Z,21.28
2019-04-21T09:52:30.319Z,21.39
2019-04-21T09:55:04.095Z,21.49
2019-04-21T09:57:37.290Z,21.58
2019-04-21T10:00:04.849Z,21.69
2019-04-21T10:02:39.957Z,21.85
2019-04-21T10:04:59.474Z,21.84
2019-04-21T10:07:34.927Z,22.08
2019-04-21T10:10:00.221Z,22.04
2019-04-21T10:12:30.589Z,22.01
2019-04-21T10:14:59.781Z,22.21
2019-04-21T10:17:35.667Z,22.15
2019-04-21T10:20:07.113Z,22.22
2019-04-21T10:22:37.211Z,22.42
2019-04-21T10:25:07.590Z,22.45
2019-04-21T10:27:37.027Z,22.40
2019-04-21T10:30:07.856Z,22.61
2019-04-21T10:32:36.960Z,22.57
2019-04-21T10:35:07.457Z,22.75
2019-04-21T10:37:47.279Z,22.73
2019-04-21T10:40:09.654Z,22.84
2019-04-21T10:42:38.900Z,22.90
2019-04-21T10:45:09.133Z,22.90
2019-04-21T10:47:38.873Z,23.06
2019-04-21T10:50:08.745Z,23.08
2019-04-21T10:52:55.782Z,23.19
2019-04-21T10:55:41.716Z,23.19
2019-04-21T10:58:14.165Z,23.21
2019-04-21T11:00:44.077Z,23.18
2019-04-21T11:03:44.766Z,23.31
2019-04-21T11:06:16.971Z,23.50
2019-04-21T11:08:49.348Z,23.52
2019-04-21T11:11:16.762Z,23.39
2019-04-21T11:13:46.464Z,23.54
2019-04-21T11:16:15.586Z,23.54
2019-04-21T11:18:44.568Z,23.58
2019-04-21T11:21:13.559Z,23.62
2019-04-21T11:23:43.746Z,23.77
2019-04-21T11:26:13.909Z,23.70
2019-04-21T11:28:43.173Z,23.74
2019-04-21T11:31:13.268Z,23.70
2019-04-21T11:33:43.013Z,23.81
2019-04-21T11:36:13.222Z,23.69
2019-04-21T11:39:12.390Z,23.81
2019-04-21T11:41:31.833Z,23.92
2019-04-21T11:44:01.468Z,23.88
2019-04-21T11:46:30.792Z,24.06
2019-04-21T11:49:00.133Z,24.03
2019-04-21T11:51:29.153Z,24.05
2019-04-21T11:53:59.160Z,24.06
2019-04-21T11:56:28.239Z,24.07
2019-04-21T11:58:57.807Z,24.14
2019-04-21T12:01:27.643Z,24.14
2019-04-21T12:03:57.970Z,24.05
2019-04-21T12:06:32.217Z,24.15
2019-04-21T12:09:00.819Z,24.36
2019-04-21T12:11:29.418Z,24.55
2019-04-21T12:13:58.612Z,24.12
2019-04-21T12:16:28.802Z,24.00
2019-04-21T12:18:58.812Z,24.20
2019-04-21T12:21:32.032Z,24.41
2019-04-21T12:23:58.635Z,24.42
2019-04-21T12:26:28.314Z,24.50
2019-04-21T12:28:57.656Z,24.60
2019-04-21T12:31:51.746Z,24.30
2019-04-21T12:34:21.873Z,24.21
2019-04-21T12:36:51.003Z,24.48
2019-04-21T12:39:20.824Z,24.81
2019-04-21T12:41:50.806Z,24.96
2019-04-21T12:44:20.437Z,24.96
2019-04-21T12:46:49.790Z,25.26
2019-04-21T12:49:20.107Z,25.25
2019-04-21T12:51:49.299Z,25.43
2019-04-21T12:54:19.553Z,25.34
2019-04-21T12:56:49.577Z,25.35
2019-04-21T12:59:19.098Z,25.34
2019-04-21T13:01:48.633Z,25.43
2019-04-21T13:04:17.783Z,25.60
2019-04-21T13:06:47.620Z,25.71
2019-04-21T13:09:19.978Z,25.60
2019-04-21T13:11:47.370Z,25.81
2019-04-21T13:14:16.324Z,25.98
2019-04-21T13:16:47.686Z,26.04
2019-04-21T13:19:17.538Z,26.29
2019-04-21T13:21:47.816Z,26.35
2019-04-21T13:24:17.837Z,26.56
2019-04-21T13:26:52.754Z,26.64
2019-04-21T13:29:18.419Z,27.04
2019-04-21T13:31:48.085Z,27.69
2019-04-21T13:34:18.010Z,27.58
2019-04-21T13:36:47.680Z,28.11
2019-04-21T13:40:01.521Z,28.58
2019-04-21T13:42:16.578Z,28.59
2019-04-21T13:44:39.126Z,28.70
2019-04-21T13:47:08.205Z,29.18
2019-04-21T13:49:37.263Z,29.46
2019-04-21T13:52:06.735Z,29.79
2019-04-21T13:54:35.822Z,29.50
2019-04-21T13:57:04.967Z,30.52
2019-04-21T13:59:34.397Z,30.26
2019-04-21T14:02:04.749Z,29.72
2019-04-21T14:04:33.854Z,29.87
2019-04-21T14:07:02.594Z,29.45
2019-04-21T14:09:40.317Z,29.59
2019-04-21T14:12:03.354Z,30.49
2019-04-21T14:14:32.420Z,31.33
2019-04-21T14:17:03.934Z,30.92
2019-04-21T14:19:33.120Z,30.61
2019-04-21T14:22:03.323Z,30.69
2019-04-21T14:24:32.895Z,31.20
2019-04-21T14:27:02.692Z,31.76
2019-04-21T14:29:31.605Z,31.35
2019-04-21T14:32:00.501Z,31.03
2019-04-21T14:34:30.183Z,31.11
2019-04-21T14:36:59.097Z,31.19
2019-04-21T14:39:28.317Z,31.20
2019-04-21T14:41:58.129Z,31.88
2019-04-21T14:44:27.237Z,30.94
2019-04-21T14:47:09.661Z,30.94
2019-04-21T14:49:57.568Z,31.09
2019-04-21T14:52:32.989Z,31.79
2019-04-21T14:55:12.864Z,32.00
2019-04-21T14:57:43.236Z,31.32
2019-04-21T15:00:15.445Z,31.26
2019-04-21T15:02:45.556Z,31.78
2019-04-21T15:05:15.681Z,31.85
2019-04-21T15:07:45.483Z,31.71
2019-04-21T15:10:19.052Z,30.39
2019-04-21T15:12:45.709Z,30.47
2019-04-21T15:15:15.880Z,30.25
2019-04-21T15:17:46.275Z,29.96
2019-04-21T15:20:17.603Z,29.82
2019-04-21T15:22:46.305Z,30.44
2019-04-21T15:25:16.212Z,31.29
2019-04-21T15:27:46.533Z,31.49
2019-04-21T15:30:16.456Z,31.55
2019-04-21T15:32:46.477Z,32.04
2019-04-21T15:35:15.561Z,32.36
2019-04-21T15:37:45.927Z,31.98
2019-04-21T15:40:25.322Z,31.99
2019-04-21T15:42:48.375Z,32.43
2019-04-21T15:45:18.761Z,32.22
2019-04-21T15:47:47.737Z,31.88
2019-04-21T15:50:19.202Z,32.59
2019-04-21T15:52:48.095Z,31.63
2019-04-21T15:55:39.233Z,31.59
2019-04-21T15:58:18.706Z,32.06
2019-04-21T16:00:52.769Z,31.72
2019-04-21T16:03:22.653Z,32.06
2019-04-21T16:05:51.773Z,31.98
2019-04-21T16:08:21.985Z,32.21
2019-04-21T16:10:56.657Z,32.14
2019-04-21T16:13:21.857Z,32.41
2019-04-21T16:15:52.525Z,32.31
2019-04-21T16:18:22.482Z,33.04
2019-04-21T16:20:51.676Z,32.91
2019-04-21T16:23:20.593Z,32.50
2019-04-21T16:25:50.784Z,32.71
2019-04-21T16:28:19.908Z,33.12
2019-04-21T16:30:49.198Z,31.95
2019-04-21T16:33:18.791Z,32.39
2019-04-21T16:35:47.740Z,31.90
2019-04-21T16:38:17.533Z,31.48
2019-04-21T16:40:54.355Z,31.93
2019-04-21T16:43:18.359Z,32.37
2019-04-21T16:45:48.769Z,31.81
2019-04-21T16:48:19.045Z,31.63
2019-04-21T16:50:48.048Z,31.65
2019-04-21T16:53:24.359Z,31.44
2019-04-21T16:55:57.402Z,31.91
2019-04-21T16:58:30.821Z,31.40
2019-04-21T17:01:08.277Z,31.37
2019-04-21T17:03:34.593Z,31.19
2019-04-21T17:06:05.052Z,31.03
2019-04-21T17:08:34.309Z,30.85
2019-04-21T17:11:12.865Z,30.71
2019-04-21T17:13:34.026Z,31.10
2019-04-21T17:16:28.655Z,30.95
2019-04-21T17:18:47.549Z,31.01
2019-04-21T17:21:05.668Z,31.07
2019-04-21T17:23:35.557Z,30.23
2019-04-21T17:26:05.428Z,29.84
2019-04-21T17:28:34.491Z,30.02
2019-04-21T17:31:04.693Z,30.38
2019-04-21T17:33:35.236Z,30.61
2019-04-21T17:36:05.070Z,30.17
2019-04-21T17:38:34.271Z,29.48
2019-04-21T17:41:14.299Z,28.93
2019-04-21T17:43:34.418Z,28.76
2019-04-21T17:46:04.854Z,28.79
2019-04-21T17:48:34.667Z,28.65
2019-04-21T17:51:51.289Z,28.41
2019-04-21T17:54:25.776Z,28.86
2019-04-21T17:57:15.307Z,28.39
2019-04-21T17:59:50.872Z,28.24
2019-04-21T18:02:09.413Z,27.81
2019-04-21T18:04:40.913Z,27.66
2019-04-21T18:07:26.314Z,27.56
2019-04-21T18:10:00.239Z,26.86
2019-04-21T18:12:25.026Z,26.42
2019-04-21T18:14:52.996Z,25.83
2019-04-21T18:17:12.116Z,25.22
2019-04-21T18:19:45.179Z,24.30
2019-04-21T18:22:35.850Z,24.30
2019-04-21T18:25:06.670Z,24.11
2019-04-21T18:27:32.527Z,23.62
2019-04-21T18:30:04.535Z,23.39
2019-04-21T18:32:38.565Z,23.06
2019-04-21T18:35:14.201Z,22.75
2019-04-21T18:38:13.306Z,22.57
2019-04-21T18:40:38.706Z,22.29
2019-04-21T18:43:48.601Z,22.00
2019-04-21T18:46:20.632Z,21.92
2019-04-21T18:48:53.802Z,21.75
2019-04-21T18:51:37.720Z,21.60
2019-04-21T18:54:26.725Z,21.37
2019-04-21T18:56:37.009Z,21.34
2019-04-21T18:59:06.722Z,21.30
2019-04-21T19:01:38.387Z,21.25
2019-04-21T19:04:14.295Z,21.05
2019-04-21T19:06:54.555Z,20.72
2019-04-21T19:09:41.436Z,20.59
2019-04-21T19:12:00.709Z,20.44
2019-04-21T19:17:17.078Z,20.33
2019-04-21T19:22:06.252Z,20.02
2019-04-21T19:24:36.910Z,19.84
2019-04-21T19:27:13.174Z,19.71
2019-04-21T19:29:33.587Z,19.62
2019-04-21T19:32:08.359Z,19.51
2019-04-21T19:34:26.825Z,19.43
2019-04-21T19:37:03.062Z,19.38
2019-04-21T19:39:39.146Z,19.48
2019-04-21T19:42:05.653Z,19.59
2019-04-21T19:44:43.576Z,19.40
2019-04-21T19:47:17.216Z,19.20
2019-04-21T19:49:51.375Z,19.08
2019-04-21T19:52:05.254Z,18.88
2019-04-21T19:54:35.874Z,18.78
2019-04-21T19:57:00.749Z,18.83
2019-04-21T19:59:36.727Z,18.72
2019-04-21T20:02:02.544Z,18.57
2019-04-21T20:04:38.518Z,18.44
2019-04-21T20:07:21.999Z,18.34
2019-04-21T20:09:50.404Z,18.26
2019-04-21T20:12:29.726Z,18.17
2019-04-21T20:15:04.939Z,18.26
2019-04-21T20:17:18.995Z,18.19
2019-04-21T20:19:38.389Z,18.01
2019-04-21T20:22:07.338Z,17.88
2019-04-21T20:24:39.260Z,17.80
2019-04-21T20:27:15.557Z,17.66
2019-04-21T20:29:58.805Z,17.41
2019-04-21T20:32:31.712Z,17.30
2019-04-21T20:35:01.491Z,17.10
2019-04-21T20:37:25.440Z,16.94
2019-04-21T20:39:47.279Z,17.01
2019-04-21T20:42:24.213Z,16.87
2019-04-21T20:45:17.322Z,16.77
2019-04-21T20:47:23.241Z,16.70
2019-04-21T20:49:57.191Z,16.90
2019-04-21T20:52:38.417Z,16.59
2019-04-21T20:54:59.956Z,16.41
2019-04-21T20:57:29.985Z,16.09
2019-04-21T21:00:09.077Z,16.19
2019-04-21T21:02:41.718Z,15.73
2019-04-21T21:04:56.919Z,15.69
2019-04-21T21:10:20.480Z,15.50
2019-04-21T21:12:43.087Z,15.35
2019-04-21T21:15:00.091Z,15.13
2019-04-21T21:17:45.466Z,15.11
2019-04-21T21:20:13.465Z,14.95
2019-04-21T21:22:40.363Z,14.98
2019-04-21T21:25:19.331Z,14.86
2019-04-21T21:27:37.069Z,14.81
2019-04-21T21:30:10.153Z,14.69
2019-04-21T21:32:44.956Z,14.53
2019-04-21T21:37:49.010Z,14.33
2019-04-21T21:40:18.688Z,14.67
2019-04-21T21:42:34.360Z,14.47
2019-04-21T21:45:04.913Z,14.16
2019-04-21T21:47:49.352Z,14.00
2019-04-21T21:50:11.631Z,13.89
2019-04-21T21:52:45.235Z,14.31
2019-04-21T21:55:03.577Z,14.07
2019-04-21T21:57:40.518Z,13.94
2019-04-21T22:00:10.744Z,13.88
2019-04-21T22:02:40.872Z,14.03
2019-04-21T22:05:14.310Z,13.73
2019-04-21T22:07:38.838Z,13.70
2019-04-21T22:10:08.643Z,13.70
2019-04-21T22:12:45.738Z,13.60
2019-04-21T22:15:16.756Z,13.51
2019-04-21T22:17:54.322Z,13.38
2019-04-21T22:20:28.787Z,13.41
2019-04-21T22:22:53.650Z,13.31
2019-04-21T22:25:19.523Z,13.31
2019-04-21T22:27:43.493Z,13.30
2019-04-21T22:30:14.675Z,13.15
2019-04-21T22:32:52.760Z,12.94
2019-04-21T22:35:26.358Z,12.74
2019-04-21T22:37:58.026Z,13.12
2019-04-21T22:40:29.505Z,13.11
2019-04-21T22:42:59.332Z,12.97
2019-04-21T22:45:19.612Z,13.12
2019-04-21T22:47:49.501Z,13.30
2019-04-21T22:50:30.824Z,13.58
2019-04-21T22:53:04.742Z,13.58
2019-04-21T22:55:33.480Z,13.49
2019-04-21T22:58:02.040Z,13.64
2019-04-21T23:00:37.776Z,13.76
2019-04-21T23:03:09.723Z,14.24
2019-04-21T23:05:37.685Z,14.24
2019-04-21T23:08:07.041Z,14.16
2019-04-21T23:10:36.988Z,14.10
2019-04-21T23:13:11.251Z,14.13
2019-04-21T23:15:42.433Z,14.39
2019-04-21T23:18:23.348Z,14.46
2019-04-21T23:20:56.743Z,14.52
2019-04-21T23:23:32.043Z,15.03
2019-04-21T23:25:53.083Z,15.04
2019-04-21T23:28:20.899Z,14.89
2019-04-21T23:31:03.602Z,14.97
2019-04-21T23:33:15.730Z,14.88
2019-04-21T23:35:45.652Z,14.77
2019-04-21T23:38:14.311Z,14.84
2019-04-21T23:40:47.602Z,14.89
2019-04-21T23:43:20.532Z,14.71
2019-04-21T23:45:46.476Z,14.96
2019-04-21T23:48:31.587Z,14.75
2019-04-21T23:50:56.115Z,14.90
2019-04-21T23:53:17.411Z,14.96
2019-04-21T23:55:47.421Z,14.96
2019-04-21T23:58:22.299Z,14.88
